createdAt,value
2022-12-16T00:02:42.814Z,-6.10
2022-12-16T00:07:45.963Z,-6.10
2022-12-16T00:12:48.554Z,-6.10
2022-12-16T00:17:51.195Z,-6.10
2022-12-16T00:22:54.494Z,-6.20
2022-12-16T00:28:00.457Z,-6.10
2022-12-16T00:33:03.710Z,-5.80
2022-12-16T00:38:07.565Z,-5.80
2022-12-16T00:43:11.121Z,-5.50
2022-12-16T00:48:13.987Z,-5.60
2022-12-16T00:53:17.073Z,-5.60
2022-12-16T00:58:19.696Z,-5.50
2022-12-16T01:03:22.752Z,-5.40
2022-12-16T01:08:25.671Z,-5.40
2022-12-16T01:13:28.403Z,-5.20
2022-12-16T01:18:31.690Z,-5.20
2022-12-16T01:23:35.256Z,-5.10
2022-12-16T01:28:38.041Z,-5.20
2022-12-16T01:33:40.721Z,-5.10
2022-12-16T01:38:44.636Z,-5.20
2022-12-16T01:43:47.484Z,-5.10
2022-12-16T01:48:59.120Z,-5.00
2022-12-16T01:54:10.686Z,-4.90
2022-12-16T01:59:17.706Z,-5.00
2022-12-16T02:04:20.445Z,-4.90
2022-12-16T02:09:23.321Z,-5.10
2022-12-16T02:14:54.083Z,-5.00
2022-12-16T02:20:09.456Z,-5.00
2022-12-16T02:25:33.607Z,-4.90
2022-12-16T02:31:00.742Z,-4.90
2022-12-16T02:36:20.903Z,-4.80
2022-12-16T02:41:33.406Z,-4.80
2022-12-16T02:46:52.942Z,-4.80
2022-12-16T02:51:57.679Z,-4.80
2022-12-16T02:57:20.508Z,-4.70
2022-12-16T03:02:30.187Z,-4.80
2022-12-16T03:07:36.715Z,-4.70
2022-12-16T03:12:42.275Z,-4.70
2022-12-16T03:17:47.864Z,-4.50
2022-12-16T03:22:54.355Z,-4.50
2022-12-16T03:28:04.562Z,-4.50
2022-12-16T03:33:39.502Z,-4.60
2022-12-16T03:38:45.676Z,-4.70
2022-12-16T03:43:49.675Z,-4.60
2022-12-16T03:48:52.981Z,-4.60
2022-12-16T03:53:55.649Z,-4.60
2022-12-16T03:58:58.810Z,-4.60
2022-12-16T04:04:01.655Z,-4.60
2022-12-16T04:09:04.475Z,-4.70
2022-12-16T04:14:27.832Z,-4.70
2022-12-16T04:19:55.487Z,-4.80
2022-12-16T04:25:07.626Z,-4.80
2022-12-16T04:30:21.157Z,-4.60
2022-12-16T04:35:42.575Z,-4.70
2022-12-16T04:41:03.924Z,-4.70
2022-12-16T04:46:25.228Z,-4.80
2022-12-16T04:51:46.727Z,-4.70
2022-12-16T05:02:29.801Z,-4.70
2022-12-16T05:07:51.668Z,-4.70
2022-12-16T05:13:13.606Z,-4.60
2022-12-16T05:18:36.021Z,-4.60
2022-12-16T05:23:57.021Z,-4.60
2022-12-16T05:29:18.499Z,-4.60
2022-12-16T05:34:39.939Z,-4.60
2022-12-16T05:40:01.170Z,-4.50
2022-12-16T05:45:23.133Z,-4.50
2022-12-16T05:50:44.477Z,-4.50
2022-12-16T05:56:05.836Z,-4.20
2022-12-16T06:01:27.666Z,-4.30
2022-12-16T06:06:49.638Z,-4.30
2022-12-16T06:12:11.260Z,-4.30
2022-12-16T06:17:32.424Z,-4.30
2022-12-16T06:22:53.841Z,-4.40
2022-12-16T06:28:14.971Z,-4.40
2022-12-16T06:33:36.152Z,-4.30
2022-12-16T06:38:57.485Z,-4.30
2022-12-16T06:44:18.867Z,-4.30
2022-12-16T06:49:40.459Z,-4.30
2022-12-16T06:55:03.353Z,-4.30
2022-12-16T07:00:25.395Z,-4.30
2022-12-16T07:05:46.658Z,-4.20
2022-12-16T07:11:16.627Z,-4.20
2022-12-16T07:16:38.497Z,-4.20
2022-12-16T07:21:59.673Z,-4.50
2022-12-16T07:27:21.060Z,-4.40
2022-12-16T07:32:42.649Z,-4.50
2022-12-16T07:38:03.928Z,-4.40
2022-12-16T07:43:25.182Z,-4.30
2022-12-16T07:48:46.462Z,-4.30
2022-12-16T07:54:07.845Z,-4.40
2022-12-16T07:59:29.089Z,-4.20
2022-12-16T08:04:50.544Z,-4.20
2022-12-16T08:10:12.198Z,-4.30
2022-12-16T08:15:35.599Z,-4.30
2022-12-16T08:20:57.299Z,-4.20
2022-12-16T08:26:18.464Z,-4.10
2022-12-16T08:31:39.824Z,-4.00
2022-12-16T08:37:01.170Z,-4.00
2022-12-16T08:42:22.433Z,-5.70
2022-12-16T08:48:00.672Z,-3.80
2022-12-16T08:53:22.231Z,-3.70
2022-12-16T08:58:43.502Z,-3.70
2022-12-16T09:04:04.972Z,-3.80
2022-12-16T09:09:26.233Z,-3.80
2022-12-16T09:14:47.489Z,-3.70
2022-12-16T09:20:08.820Z,-3.60
2022-12-16T09:25:30.217Z,-3.60
2022-12-16T09:30:51.639Z,-3.50
2022-12-16T09:36:13.858Z,-3.30
2022-12-16T09:41:46.838Z,-3.50
2022-12-16T09:47:42.058Z,-3.40
2022-12-16T09:53:09.424Z,-3.40
2022-12-16T09:58:32.368Z,-3.40
2022-12-16T10:03:58.177Z,-3.40
2022-12-16T10:09:31.417Z,-3.40
2022-12-16T10:15:10.381Z,-3.40
2022-12-16T10:21:08.591Z,-3.40
2022-12-16T10:26:47.525Z,-3.10
2022-12-16T10:32:08.964Z,-3.30
2022-12-16T10:37:45.714Z,-3.30
2022-12-16T10:43:16.669Z,-3.20
2022-12-16T10:48:55.137Z,-3.10
2022-12-16T10:54:34.383Z,-3.10
2022-12-16T10:59:57.876Z,-3.10
2022-12-16T11:05:21.324Z,-2.90
2022-12-16T11:10:58.699Z,-2.80
2022-12-16T11:16:31.315Z,-2.70
2022-12-16T11:21:52.568Z,-2.80
2022-12-16T11:27:16.884Z,-2.80
2022-12-16T11:32:45.876Z,-2.70
2022-12-16T11:38:09.675Z,-2.80
2022-12-16T11:43:34.737Z,-2.80
2022-12-16T11:49:11.488Z,-2.50
2022-12-16T11:54:44.602Z,-2.30
2022-12-16T12:00:30.540Z,-2.60
2022-12-16T12:06:03.091Z,-2.70
2022-12-16T12:11:50.216Z,-2.70
2022-12-16T12:17:23.913Z,-2.90
2022-12-16T12:22:47.896Z,-3.00
2022-12-16T12:28:42.232Z,-3.00
2022-12-16T12:34:28.386Z,-3.10
2022-12-16T12:40:07.239Z,-3.10
2022-12-16T12:45:40.273Z,-3.00
2022-12-16T12:51:22.084Z,-3.10
2022-12-16T12:57:02.094Z,-3.10
2022-12-16T13:02:45.787Z,-3.00
2022-12-16T13:08:08.743Z,-3.10
2022-12-16T13:13:36.725Z,-3.20
2022-12-16T13:18:58.175Z,-3.20
2022-12-16T13:24:46.516Z,-3.20
2022-12-16T13:30:23.097Z,-3.40
2022-12-16T13:35:44.577Z,-3.50
2022-12-16T13:41:13.093Z,-3.60
2022-12-16T13:46:35.539Z,-3.60
2022-12-16T13:51:56.737Z,-3.60
2022-12-16T13:57:20.503Z,-3.50
2022-12-16T14:02:41.746Z,-3.50
2022-12-16T14:08:04.119Z,-3.50
2022-12-16T14:13:34.247Z,-3.50
2022-12-16T14:19:23.841Z,-3.40
2022-12-16T14:24:48.632Z,-3.40
2022-12-16T14:30:10.177Z,-3.40
2022-12-16T14:35:43.264Z,-3.00
2022-12-16T14:41:10.556Z,-3.40
2022-12-16T14:46:49.443Z,-3.50
2022-12-16T14:52:11.021Z,-3.50
2022-12-16T14:57:36.889Z,-3.60
2022-12-16T15:03:04.583Z,-3.50
2022-12-16T15:08:30.796Z,-3.60
2022-12-16T15:13:57.813Z,-3.50
2022-12-16T15:19:23.714Z,-3.60
2022-12-16T15:24:46.241Z,-3.40
2022-12-16T15:30:07.397Z,-3.50
2022-12-16T15:35:51.062Z,-3.50
2022-12-16T15:41:12.379Z,-3.40
2022-12-16T15:46:48.119Z,-3.50
2022-12-16T15:52:10.441Z,-3.50
2022-12-16T15:57:50.317Z,-3.50
2022-12-16T16:03:11.751Z,-3.50
2022-12-16T16:08:33.387Z,-3.60
2022-12-16T16:13:57.884Z,-3.60
2022-12-16T16:19:22.384Z,-3.50
2022-12-16T16:24:43.884Z,-3.50
2022-12-16T16:30:05.465Z,-3.50
2022-12-16T16:35:27.075Z,-3.60
2022-12-16T16:40:54.063Z,-3.60
2022-12-16T16:46:15.596Z,-3.60
2022-12-16T16:51:36.607Z,-3.60
2022-12-16T16:56:58.434Z,-3.50
2022-12-16T17:02:19.858Z,-3.50
2022-12-16T17:07:41.185Z,-3.50
2022-12-16T17:13:04.670Z,-3.50
2022-12-16T17:18:26.581Z,-3.50
2022-12-16T17:23:48.095Z,-3.50
2022-12-16T17:29:09.480Z,-3.40
2022-12-16T17:34:31.033Z,-3.50
2022-12-16T17:39:52.650Z,-3.50
2022-12-16T17:45:13.994Z,-3.40
2022-12-16T17:50:35.654Z,-3.50
2022-12-16T17:55:56.847Z,-3.50
2022-12-16T18:01:23.990Z,-3.40
2022-12-16T18:06:45.568Z,-3.40
2022-12-16T18:12:07.219Z,-3.40
2022-12-16T18:17:28.543Z,-3.30
2022-12-16T18:22:50.005Z,-3.30
2022-12-16T18:28:11.207Z,-3.20
2022-12-16T18:33:32.952Z,-3.30
2022-12-16T18:38:54.502Z,-3.30
2022-12-16T18:44:15.711Z,-3.20
2022-12-16T18:49:36.995Z,-3.20
2022-12-16T18:54:58.560Z,-3.20
2022-12-16T19:00:19.582Z,-3.10
2022-12-16T19:05:40.956Z,-3.10
2022-12-16T19:11:02.593Z,-3.20
2022-12-16T19:16:24.281Z,-3.20
2022-12-16T19:27:28.006Z,-3.10
2022-12-16T19:32:49.398Z,-3.20
2022-12-16T19:38:10.999Z,-3.10
2022-12-16T19:43:32.376Z,-3.10
2022-12-16T19:48:53.691Z,-3.00
2022-12-16T19:54:17.599Z,-3.10
2022-12-16T19:59:39.404Z,-3.10
2022-12-16T20:05:00.798Z,-3.10
2022-12-16T20:10:22.328Z,-3.10
2022-12-16T20:15:43.792Z,-3.10
2022-12-16T20:21:04.960Z,-3.10
2022-12-16T20:26:26.360Z,-3.00
2022-12-16T20:31:48.233Z,-3.00
2022-12-16T20:37:09.692Z,-3.00
2022-12-16T20:42:50.849Z,-3.10
2022-12-16T20:48:15.076Z,-3.00
2022-12-16T20:53:36.801Z,-3.10
2022-12-16T20:58:58.415Z,-3.10
2022-12-16T21:04:19.612Z,-3.10
2022-12-16T21:09:40.830Z,-3.10
2022-12-16T21:15:02.195Z,-3.10
2022-12-16T21:20:24.234Z,-3.00
2022-12-16T21:25:45.563Z,-3.10
2022-12-16T21:31:06.880Z,-3.10
2022-12-16T21:36:28.215Z,-3.10
2022-12-16T21:41:49.605Z,-3.10
2022-12-16T21:47:10.844Z,-3.20
2022-12-16T21:52:32.393Z,-3.20
2022-12-16T21:57:53.640Z,-3.20
2022-12-16T22:03:17.817Z,-3.80
2022-12-16T22:08:39.319Z,-3.30
2022-12-16T22:14:00.811Z,-3.20
2022-12-16T22:19:22.181Z,-3.20
2022-12-16T22:24:43.515Z,-3.20
2022-12-16T22:30:04.955Z,-3.20
2022-12-16T22:35:26.982Z,-3.30
2022-12-16T22:40:48.276Z,-3.30
2022-12-16T22:46:19.699Z,-3.40
2022-12-16T22:51:41.241Z,-3.40
2022-12-16T22:57:03.339Z,-3.40
2022-12-16T23:02:25.053Z,-3.50
2022-12-16T23:07:46.571Z,-3.50
2022-12-16T23:13:07.826Z,-3.50
2022-12-16T23:18:29.340Z,-3.40
2022-12-16T23:23:50.772Z,-3.40
2022-12-16T23:29:12.317Z,-3.40
2022-12-16T23:34:33.359Z,-3.40
2022-12-16T23:39:54.700Z,-3.40
2022-12-16T23:45:17.630Z,-3.50
2022-12-16T23:50:39.054Z,-3.60
2022-12-16T23:56:04.930Z,-3.60
